CW1231 Weather Reports


Display with metric or nautical units.
time (UTC)temp
F
wind
direction
speed
MPH
gust
MPH
rain 1hr
in
rain 24hr
in
rain mn
in
humidity
%
barometer
mb
20210926080104 58 155 0.0 0.0 0.00 0.00 0.00 93 1016.9
20210926073604 59 155 0.0 0.0 0.00 0.00 0.00 93 1017.0
20210926073104 59 155 0.0 0.0 0.00 0.00 0.00 92 1017.1
20210926070603 59 155 0.0 0.0 0.00 0.00 0.00 92 1017.1
20210926070104 59 155 0.0 0.0 0.00 0.00 0.00 92 1017.1
20210926063604 60 155 0.0 0.0 0.00 0.00 0.00 93 1017.5
20210926063104 60 155 0.0 0.0 0.00 0.00 0.00 93 1017.6
20210926060604 60 155 0.0 0.0 0.00 0.00 0.00 92 1017.4
20210926060104 60 155 0.0 0.0 0.00 0.00 0.00 92 1017.5
20210926053603 60 155 0.0 0.0 0.00 0.00 0.00 92 1017.5
20210926053104 60 155 0.0 0.0 0.00 0.00 0.00 92 1017.7
20210926050604 61 155 0.0 0.0 0.00 0.00 0.00 92 1017.7
20210926050104 61 155 0.0 0.0 0.00 0.00 0.00 92 1017.7
20210926043604 61 155 0.0 0.0 0.00 0.00 0.00 92 1017.7
20210926043104 61 155 0.0 0.0 0.00 0.00 0.00 92 1017.7
20210926040604 61 155 0.0 0.0 0.00 0.00 0.00 91 1017.6
20210926040104 61 155 0.0 0.0 0.00 0.00 0.00 91 1017.6
20210926033604 62 155 0.0 0.0 0.00 0.00 0.00 91 1017.6
20210926033104 62 155 0.0 0.0 0.00 0.00 0.00 91 1017.6
20210926030604 62 155 0.0 0.0 0.00 0.00 0.00 90 1017.4
20210926030104 62 155 0.0 0.0 0.00 0.00 0.00 90 1017.4
20210926023603 63 155 0.0 0.0 0.00 0.00 0.00 89 1017.3
20210926023104 63 155 0.0 0.0 0.00 0.00 0.00 89 1017.3
20210926020603 64 155 0.0 0.0 0.00 0.00 0.00 87 1017.0
20210926020104 64 155 0.0 0.0 0.00 0.00 0.00 87 1017.0
20210926013604 65 155 0.0 0.0 0.00 0.00 0.00 86 1016.8
20210926013104 65 155 0.0 0.0 0.00 0.00 0.00 85 1016.7
20210926010604 67 155 0.0 0.0 0.00 0.00 0.00 84 1016.5
20210926010103 67 155 0.0 0.0 0.00 0.00 0.00 83 1016.4
20210926003604 69 155 0.0 0.0 0.00 0.00 0.00 80 1016.0
20210926003104 69 155 0.0 0.0 0.00 0.00 0.00 79 1015.9
20210926000604 71 155 0.0 0.0 0.00 0.00 0.00 77 1016.0
20210926000104 71 155 0.0 0.0 0.00 0.00 0.00 77 1016.0
20210925233604 74 155 0.0 0.0 0.00 0.00 0.00 72 1015.9
20210925233104 74 155 0.0 0.0 0.00 0.00 0.00 71 1015.9
20210925230604 76 155 0.0 0.0 0.00 0.00 0.00 62 1015.6
20210925230104 77 155 0.0 3.0 0.00 0.00 0.00 63 1015.6
20210925223604 77 155 1.0 2.0 0.00 0.00 0.00 59 1015.6
20210925223103 77 155 1.0 5.0 0.00 0.00 0.00 58 1015.6
20210925220604 78 149 2.0 3.0 0.00 0.00 0.00 57 1015.6
20210925220104 78 163 0.0 6.0 0.00 0.00 0.00 58 1015.6
20210925213603 79 156 3.0 6.0 0.00 0.00 0.00 55 1015.6
20210925213104 79 192 2.0 6.0 0.00 0.00 0.00 55 1015.6
20210925210604 80 155 3.0 5.0 0.00 0.00 0.00 52 1015.7
20210925210104 80 168 1.0 6.0 0.00 0.00 0.00 54 1015.7
20210925203604 82 52 0.0 0.0 0.00 0.00 0.00 47 1015.8
20210925203104 82 51 0.0 3.0 0.00 0.00 0.00 46 1015.8
20210925200603 83 282 2.0 3.0 0.00 0.00 0.00 47 1016.2
20210925200104 83 36 2.0 6.0 0.00 0.00 0.00 50 1016.2
20210925193603 82 161 1.0 3.0 0.00 0.00 0.00 46 1016.4
20210925193104 82 276 2.0 3.0 0.00 0.00 0.00 49 1016.4
20210925190604 82 51 1.0 2.0 0.00 0.00 0.00 46 1016.9
20210925190104 81 244 1.0 3.0 0.00 0.00 0.00 50 1016.9
20210925183604 81 206 2.0 3.0 0.00 0.00 0.00 47 1017.2
20210925183104 80 181 2.0 3.0 0.00 0.00 0.00 47 1017.2
20210925180604 80 22 1.0 5.0 0.00 0.00 0.00 45 1017.4
20210925180104 80 16 3.0 7.0 0.00 0.00 0.00 44 1017.5
20210925173604 80 308 2.0 3.0 0.00 0.00 0.00 49 1017.7
20210925173104 80 352 1.0 9.0 0.00 0.00 0.00 47 1017.7
20210925170604 79 21 2.0 7.0 0.00 0.00 0.00 50 1017.7
20210925170104 79 96 2.0 7.0 0.00 0.00 0.00 48 1017.7
20210925163603 79 314 4.0 7.0 0.00 0.00 0.00 52 1018.2
20210925163103 79 19 4.0 8.0 0.00 0.00 0.00 51 1018.2
20210925160604 77 286 3.0 5.0 0.00 0.00 0.00 53 1018.3
20210925160104 78 300 4.0 10.0 0.00 0.00 0.00 49 1018.3
20210925153604 77 280 2.0 6.0 0.00 0.00 0.00 54 1018.3
20210925153105 76 7 3.0 9.0 0.00 0.00 0.00 55 1018.6
20210925150604 75 326 2.0 5.0 0.00 0.00 0.00 60 1018.6
20210925150103 74 274 2.0 7.0 0.00 0.00 0.00 65 1018.5
20210925143604 72 253 3.0 7.0 0.00 0.00 0.00 68 1018.5
20210925140604 69 336 2.0 5.0 0.00 0.00 0.00 74 1018.3
20210925140104 68 13 2.0 5.0 0.00 0.00 0.00 77 1018.3
20210925133604 61 22 0.0 1.0 0.00 0.00 0.00 89 1018.3
20210925133104 60 22 1.0 5.0 0.00 0.00 0.00 88 1018.3
20210925130603 56 11 0.0 0.0 0.00 0.00 0.00 94 1018.3
20210925130104 56 11 0.0 2.0 0.00 0.00 0.00 95 1018.2
20210925123603 54 339 0.0 0.0 0.00 0.00 0.00 94 1018.2
20210925123104 54 338 0.0 0.0 0.00 0.00 0.00 94 1018.1
20210925120604 54 333 0.0 0.0 0.00 0.00 0.00 94 1017.8
20210925120105 53 333 0.0 0.0 0.00 0.00 0.00 93 1017.8
20210925113604 54 333 0.0 0.0 0.00 0.00 0.00 93 1017.6
20210925113103 54 333 0.0 0.0 0.00 0.00 0.00 93 1017.7
20210925110604 54 333 0.0 0.0 0.00 0.00 0.00 93 1017.3
20210925110104 54 333 0.0 0.0 0.00 0.00 0.00 93 1017.3
20210925103603 54 333 0.0 0.0 0.00 0.00 0.00 93 1017.2
20210925103104 54 333 0.0 0.0 0.00 0.00 0.00 92 1017.0
20210925100603 55 333 0.0 0.0 0.00 0.00 0.00 92 1016.8
20210925100104 55 333 0.0 0.0 0.00 0.00 0.00 92 1016.8
20210925093604 55 333 0.0 0.0 0.00 0.00 0.00 92 1016.9
20210925093104 55 333 0.0 0.0 0.00 0.00 0.00 92 1016.7
20210925090603 55 333 0.0 0.0 0.00 0.00 0.00 92 1016.7
20210925090104 55 333 0.0 0.0 0.00 0.00 0.00 92 1016.6
20210925083604 56 331 0.0 0.0 0.00 0.00 0.00 92 1016.8
20210925083104 56 331 0.0 0.0 0.00 0.00 0.00 92 1016.8
20210925080604 56 332 0.0 0.0 0.00 0.00 0.00 92 1016.5